Time;durP1;ratioP1;P1;durP2;ratioP2;P2;SDS_P1;SDS_P2;PMS_P1;PMS_P2;Temp;Humidity;BMP_temperature;BMP_pressure;BME280_temperature;BME280_humidity;BME280_pressure;Samples;Min_cycle;Max_cycle;Signal;HPM_P1;HPM_P2
2020/12/01 00:00:58;;;;;;;22.47;20.07;;;1.10;99.90;;;;;;5132563;27;20439;-81
2020/12/01 00:03:25;;;;;;;25.60;21.17;;;1.10;99.90;;;;;;5114178;28;20492;-81
2020/12/01 00:05:51;;;;;;;24.87;20.60;;;1.20;99.90;;;;;;5132577;28;20474;-81
2020/12/01 00:08:17;;;;;;;23.03;20.67;;;1.10;99.90;;;;;;5113779;28;20459;-81
2020/12/01 00:10:43;;;;;;;26.63;21.77;;;1.10;99.90;;;;;;5114114;28;20503;-81
2020/12/01 00:13:12;;;;;;;23.73;20.33;;;1.10;99.90;;;;;;5132435;27;20460;-81
2020/12/01 00:15:39;;;;;;;25.90;21.53;;;1.10;99.90;;;;;;5114204;28;20986;-81
2020/12/01 00:18:05;;;;;;;27.83;22.43;;;1.10;99.90;;;;;;5132410;27;20542;-81
2020/12/01 00:20:32;;;;;;;26.27;21.47;;;1.10;99.90;;;;;;5132710;27;20434;-81
2020/12/01 00:22:59;;;;;;;27.77;22.00;;;1.10;99.90;;;;;;5113919;28;20438;-81
2020/12/01 00:25:26;;;;;;;25.03;20.80;;;1.10;99.90;;;;;;5132126;27;20527;-81
2020/12/01 00:27:52;;;;;;;26.67;21.00;;;1.10;99.90;;;;;;5113671;28;20507;-81
2020/12/01 00:30:20;;;;;;;23.70;21.10;;;1.10;99.90;;;;;;5113696;27;20450;-81
2020/12/01 00:32:47;;;;;;;25.07;20.50;;;1.10;99.90;;;;;;5135209;27;20998;-80
2020/12/01 00:35:16;;;;;;;24.97;20.37;;;1.20;99.90;;;;;;5135998;27;20507;-81
2020/12/01 00:37:43;;;;;;;24.83;21.67;;;1.20;99.90;;;;;;5117587;27;20438;-81
2020/12/01 00:40:11;;;;;;;28.13;21.37;;;1.20;99.90;;;;;;5117564;27;20449;-81
2020/12/01 00:42:37;;;;;;;27.93;21.17;;;1.20;99.90;;;;;;5117423;27;20495;-80
2020/12/01 00:45:05;;;;;;;26.53;22.43;;;1.20;99.90;;;;;;5117752;27;21003;-81
2020/12/01 00:47:32;;;;;;;26.47;22.03;;;1.10;99.90;;;;;;5120842;27;20434;-80
2020/12/01 00:49:58;;;;;;;26.93;22.47;;;1.10;99.90;;;;;;5123423;27;21114;-81
2020/12/01 00:52:25;;;;;;;28.03;22.40;;;1.10;99.90;;;;;;5123382;27;20434;-81
2020/12/01 00:54:52;;;;;;;29.23;22.63;;;1.10;99.90;;;;;;5128200;27;20466;-81
2020/12/01 00:57:18;;;;;;;28.20;21.80;;;1.10;99.90;;;;;;5125127;27;20453;-81
2020/12/01 00:59:45;;;;;;;29.43;22.80;;;1.10;99.90;;;;;;5123609;27;20821;-81
2020/12/01 01:02:18;;;;;;;29.87;23.73;;;1.10;99.90;;;;;;5125034;27;20448;-81
2020/12/01 01:04:45;;;;;;;32.07;23.07;;;1.10;99.90;;;;;;5152440;27;20462;-81
2020/12/01 01:07:11;;;;;;;31.27;24.00;;;1.20;99.90;;;;;;5118424;27;20489;-81
2020/12/01 01:09:37;;;;;;;30.60;23.93;;;1.20;99.90;;;;;;5138395;27;20862;-81
2020/12/01 01:12:04;;;;;;;27.47;23.20;;;1.20;99.90;;;;;;5120572;27;20443;-81
2020/12/01 01:14:31;;;;;;;29.30;23.70;;;1.20;99.90;;;;;;5138112;27;21274;-81
2020/12/01 01:16:57;;;;;;;26.70;22.83;;;1.20;99.90;;;;;;5119560;27;20442;-81
2020/12/01 01:19:23;;;;;;;29.77;22.93;;;1.30;99.90;;;;;;5119501;27;20459;-81
2020/12/01 01:21:50;;;;;;;26.57;22.73;;;1.30;99.90;;;;;;5119522;27;20496;-81
2020/12/01 01:24:18;;;;;;;27.47;22.90;;;1.30;99.90;;;;;;5118798;27;21065;-81
2020/12/01 01:26:47;;;;;;;27.10;23.03;;;1.40;99.90;;;;;;5118853;27;20474;-81
2020/12/01 01:29:15;;;;;;;29.27;24.97;;;1.40;99.90;;;;;;5138363;27;20433;-81
2020/12/01 01:31:41;;;;;;;27.97;22.83;;;1.40;99.90;;;;;;5137674;27;21238;-81
2020/12/01 01:34:07;;;;;;;30.80;22.77;;;1.50;99.90;;;;;;5137822;27;20439;-81
2020/12/01 01:36:34;;;;;;;27.90;22.93;;;1.50;99.90;;;;;;5137440;27;20462;-81
2020/12/01 01:39:00;;;;;;;24.10;21.50;;;1.60;99.90;;;;;;5118613;27;20442;-81
2020/12/01 01:41:29;;;;;;;26.33;21.80;;;1.60;99.90;;;;;;5136785;27;20467;-81
2020/12/01 01:43:55;;;;;;;27.07;21.83;;;1.60;99.90;;;;;;5136801;27;20451;-81
2020/12/01 01:46:37;;;;;;;26.93;22.23;;;1.70;99.90;;;;;;5136599;27;20478;-81
2020/12/01 01:49:07;;;;;;;24.97;20.73;;;1.70;99.90;;;;;;5117762;27;20446;-81
2020/12/01 01:51:35;;;;;;;25.40;21.40;;;1.70;99.90;;;;;;5118048;27;21071;-81
2020/12/01 01:54:02;;;;;;;24.27;21.67;;;1.80;99.90;;;;;;5136159;27;20450;-81
2020/12/01 01:56:34;;;;;;;24.53;21.93;;;1.80;99.90;;;;;;5118019;27;20444;-81
2020/12/01 01:59:01;;;;;;;26.67;23.37;;;1.70;99.90;;;;;;5135564;27;20430;-81
2020/12/01 02:01:30;;;;;;;28.03;23.37;;;1.70;99.90;;;;;;5117229;27;20449;-81
2020/12/01 02:04:00;;;;;;;29.97;22.37;;;1.70;99.90;;;;;;5135705;27;20442;-81
2020/12/01 02:06:28;;;;;;;26.60;22.63;;;1.70;99.90;;;;;;5062000;23;20492;-76
2020/12/01 02:08:58;;;;;;;27.53;22.83;;;1.70;99.90;;;;;;5030017;28;20454;-76
2020/12/01 02:11:26;;;;;;;31.33;23.77;;;1.70;99.90;;;;;;5032078;28;20474;-76
2020/12/01 02:14:03;;;;;;;26.70;23.63;;;1.70;99.90;;;;;;5031902;28;20434;-76
2020/12/01 02:16:29;;;;;;;24.33;21.77;;;1.70;99.90;;;;;;5031946;28;20495;-76
2020/12/01 02:18:56;;;;;;;25.47;22.50;;;1.60;99.90;;;;;;5031256;28;20498;-76
2020/12/01 02:21:33;;;;;;;24.43;21.80;;;1.70;99.90;;;;;;5031936;28;20485;-77
2020/12/01 02:24:01;;;;;;;28.50;23.63;;;1.60;99.90;;;;;;5030429;28;20443;-75
2020/12/01 02:26:29;;;;;;;26.03;21.77;;;1.60;99.90;;;;;;5029946;28;20916;-75
2020/12/01 02:28:56;;;;;;;25.03;21.60;;;1.70;99.90;;;;;;5030963;28;20521;-76
2020/12/01 02:31:22;;;;;;;23.70;21.20;;;1.70;99.90;;;;;;5030321;28;20459;-76
2020/12/01 02:33:49;;;;;;;26.33;22.20;;;1.70;99.90;;;;;;5031140;28;20434;-77
2020/12/01 02:36:16;;;;;;;24.90;21.67;;;1.70;99.90;;;;;;5031206;28;20459;-75
2020/12/01 02:38:42;;;;;;;22.83;20.47;;;1.70;99.90;;;;;;5030820;28;20488;-75
2020/12/01 02:41:08;;;;;;;25.60;21.63;;;1.80;99.90;;;;;;5031166;28;20429;-76
2020/12/01 02:43:36;;;;;;;22.73;20.43;;;1.80;99.90;;;;;;5031061;28;20485;-76
2020/12/01 02:46:03;;;;;;;22.80;20.43;;;1.80;99.90;;;;;;5030890;28;20505;-75
2020/12/01 02:48:29;;;;;;;24.43;21.83;;;1.80;99.90;;;;;;5030609;28;20484;-76
2020/12/01 02:50:55;;;;;;;24.50;21.73;;;1.80;99.90;;;;;;5031122;28;20427;-75
2020/12/01 02:53:22;;;;;;;23.87;21.30;;;1.80;99.90;;;;;;5030903;28;20431;-75
2020/12/01 02:55:48;;;;;;;25.83;21.23;;;1.80;99.90;;;;;;5029084;28;20467;-76
2020/12/01 02:58:14;;;;;;;24.53;20.87;;;1.80;99.90;;;;;;5027750;28;20474;-76
2020/12/01 03:00:43;;;;;;;25.40;21.47;;;1.80;99.90;;;;;;5029430;28;20501;-76
2020/12/01 03:03:10;;;;;;;26.60;22.43;;;1.80;99.90;;;;;;5028642;28;20445;-76
2020/12/01 03:05:36;;;;;;;25.63;22.63;;;1.80;99.90;;;;;;5030480;28;20478;-76
2020/12/01 03:08:02;;;;;;;26.33;21.67;;;1.80;99.90;;;;;;5030988;28;20500;-76
2020/12/01 03:10:28;;;;;;;24.90;21.60;;;1.80;99.90;;;;;;5029238;28;20512;-75
2020/12/01 03:12:55;;;;;;;23.53;21.03;;;1.80;99.90;;;;;;5029398;28;20445;-76
2020/12/01 03:15:21;;;;;;;26.80;23.23;;;1.80;99.90;;;;;;5029525;28;20458;-76
2020/12/01 03:17:49;;;;;;;28.83;23.43;;;1.80;99.90;;;;;;5029403;28;20450;-75
2020/12/01 03:20:15;;;;;;;27.17;22.37;;;1.80;99.90;;;;;;5030698;28;20496;-75
2020/12/01 03:22:41;;;;;;;26.13;23.17;;;1.80;99.90;;;;;;5030522;28;20428;-76
2020/12/01 03:25:07;;;;;;;26.33;22.73;;;1.80;99.90;;;;;;5030520;28;20459;-75
2020/12/01 03:27:34;;;;;;;27.53;23.33;;;1.80;99.90;;;;;;5030496;28;20435;-76
2020/12/01 03:30:00;;;;;;;26.90;23.17;;;1.80;99.90;;;;;;5028055;28;20956;-76
2020/12/01 03:32:26;;;;;;;25.23;22.27;;;1.80;99.90;;;;;;5028881;28;21034;-76
2020/12/01 03:34:53;;;;;;;27.70;22.97;;;1.80;99.90;;;;;;5030714;28;20518;-76
2020/12/01 03:37:20;;;;;;;25.97;23.13;;;1.80;99.90;;;;;;5030617;28;20957;-76
2020/12/01 03:39:46;;;;;;;27.07;22.70;;;1.80;99.90;;;;;;5029528;28;20874;-77
2020/12/01 03:42:13;;;;;;;26.97;22.40;;;1.80;99.90;;;;;;5030643;28;20838;-74
2020/12/01 03:44:39;;;;;;;25.20;22.50;;;1.80;99.90;;;;;;5029423;28;20497;-76
2020/12/01 03:47:05;;;;;;;30.17;23.37;;;1.80;99.90;;;;;;5029104;28;20491;-75
2020/12/01 03:49:32;;;;;;;27.27;23.33;;;1.80;99.90;;;;;;5028187;28;20448;-75
2020/12/01 03:51:59;;;;;;;27.03;22.80;;;1.80;99.90;;;;;;5029718;28;20441;-75
2020/12/01 03:54:25;;;;;;;29.50;22.83;;;1.90;99.90;;;;;;5027401;28;20455;-76
2020/12/01 03:56:51;;;;;;;27.20;23.87;;;1.90;99.90;;;;;;5029664;28;20431;-76
2020/12/01 03:59:18;;;;;;;26.50;23.50;;;1.90;99.90;;;;;;5028747;28;20496;-74
2020/12/01 04:01:44;;;;;;;28.83;25.13;;;1.90;99.90;;;;;;5028259;28;20449;-75
2020/12/01 04:04:10;;;;;;;28.87;23.80;;;1.90;99.90;;;;;;5043519;28;21003;-76
2020/12/01 04:06:36;;;;;;;26.83;23.93;;;1.90;99.90;;;;;;5031348;28;21037;-75
2020/12/01 04:09:05;;;;;;;28.20;24.10;;;1.80;99.90;;;;;;5030678;28;20443;-77
2020/12/01 04:11:31;;;;;;;30.60;24.13;;;1.80;99.90;;;;;;5031237;28;20453;-75
2020/12/01 04:13:57;;;;;;;27.80;23.80;;;1.90;99.90;;;;;;5032411;28;20453;-76
2020/12/01 04:16:24;;;;;;;31.30;23.77;;;1.80;99.90;;;;;;5029975;28;21056;-76
2020/12/01 04:18:50;;;;;;;32.87;25.30;;;1.90;99.90;;;;;;5028235;28;20458;-75
2020/12/01 04:21:17;;;;;;;30.60;25.17;;;1.90;99.90;;;;;;5029776;28;20469;-76
2020/12/01 04:23:43;;;;;;;27.77;24.63;;;1.90;99.90;;;;;;5030922;28;20467;-76
2020/12/01 04:26:10;;;;;;;28.50;23.60;;;1.90;99.90;;;;;;5031142;28;20507;-75
2020/12/01 04:28:37;;;;;;;30.37;24.87;;;1.90;99.90;;;;;;5032109;28;20437;-76
2020/12/01 04:31:03;;;;;;;26.67;22.73;;;2.00;99.90;;;;;;5031165;28;20878;-76
2020/12/01 04:33:29;;;;;;;29.37;23.10;;;2.00;99.90;;;;;;5032517;28;20438;-76
2020/12/01 04:35:55;;;;;;;25.67;22.40;;;2.10;99.90;;;;;;5031217;28;20462;-75
2020/12/01 04:38:22;;;;;;;25.17;22.53;;;2.10;99.90;;;;;;5031075;28;20912;-75
2020/12/01 04:40:49;;;;;;;25.00;22.47;;;2.10;99.90;;;;;;5030916;28;21100;-76
2020/12/01 04:43:28;;;;;;;24.17;21.70;;;2.10;99.90;;;;;;5032310;28;20511;-77
2020/12/01 04:45:55;;;;;;;25.03;22.37;;;2.10;99.90;;;;;;5031321;28;20536;-77
2020/12/01 04:48:32;;;;;;;24.67;22.10;;;2.20;99.90;;;;;;5033200;28;20496;-76
2020/12/01 04:51:03;;;;;;;23.47;20.97;;;2.20;99.90;;;;;;5032134;28;20500;-75
2020/12/01 04:54:16;;;;;;;23.77;20.80;;;2.20;99.90;;;;;;5029383;28;20497;-75
2020/12/01 04:57:11;;;;;;;25.30;22.70;;;2.10;99.90;;;;;;4997565;28;20474;-75
2020/12/01 05:00:01;;;;;;;24.53;21.43;;;2.10;99.90;;;;;;5031517;28;20506;-76
2020/12/01 05:02:40;;;;;;;31.23;25.60;;;2.00;99.90;;;;;;5031827;28;20509;-75
2020/12/01 05:05:30;;;;;;;26.63;23.83;;;2.00;99.90;;;;;;5031485;28;20497;-75
2020/12/01 05:08:32;;;;;;;26.37;23.53;;;2.00;99.90;;;;;;5032918;28;20469;-77
2020/12/01 05:11:01;;;;;;;29.37;24.13;;;2.00;99.90;;;;;;5031562;28;20442;-77
2020/12/01 05:13:32;;;;;;;30.87;24.27;;;1.90;99.90;;;;;;5031479;28;20453;-76
2020/12/01 05:16:07;;;;;;;27.33;23.20;;;1.90;99.90;;;;;;5032760;28;20447;-75
2020/12/01 05:18:35;;;;;;;28.63;24.63;;;2.00;99.90;;;;;;5030648;28;20456;-76
2020/12/01 05:21:04;;;;;;;36.63;26.40;;;1.90;99.90;;;;;;5031456;28;20489;-75
2020/12/01 05:23:36;;;;;;;26.20;23.47;;;1.90;99.90;;;;;;5032898;28;21111;-77
2020/12/01 05:26:06;;;;;;;25.23;22.63;;;1.90;99.90;;;;;;5032421;28;20995;-78
2020/12/01 05:28:42;;;;;;;26.80;24.00;;;2.00;99.90;;;;;;5032570;28;20458;-77
2020/12/01 05:31:09;;;;;;;26.17;23.60;;;1.90;99.90;;;;;;5033805;28;20485;-76
2020/12/01 05:33:36;;;;;;;26.33;22.87;;;2.00;99.90;;;;;;5031622;28;20494;-77
2020/12/01 05:36:05;;;;;;;26.20;23.37;;;2.00;99.90;;;;;;5029325;28;20521;-76
2020/12/01 05:38:33;;;;;;;24.10;21.53;;;2.10;99.90;;;;;;5031593;28;20443;-74
2020/12/01 05:41:01;;;;;;;26.53;23.23;;;2.10;99.90;;;;;;5032538;28;20433;-74
2020/12/01 05:43:34;;;;;;;24.37;21.97;;;2.10;99.90;;;;;;5031472;28;20505;-75
2020/12/01 05:46:12;;;;;;;23.10;20.60;;;2.20;99.90;;;;;;5031160;28;21005;-74
2020/12/01 05:48:59;;;;;;;24.20;21.90;;;2.20;99.90;;;;;;5033625;28;20494;-76
2020/12/01 05:51:34;;;;;;;25.40;22.77;;;2.20;99.90;;;;;;5033647;28;20435;-75
2020/12/01 05:54:02;;;;;;;25.30;22.73;;;2.20;99.90;;;;;;5033255;28;20426;-76
2020/12/01 05:56:28;;;;;;;25.57;22.67;;;2.20;99.90;;;;;;5032322;28;20458;-77
2020/12/01 05:58:59;;;;;;;28.80;23.87;;;2.10;99.90;;;;;;5032388;28;20885;-76
2020/12/01 06:01:27;;;;;;;27.37;24.17;;;2.10;99.90;;;;;;5031321;28;21035;-76
2020/12/01 06:04:10;;;;;;;25.87;23.07;;;2.20;99.90;;;;;;5031324;28;20443;-76
2020/12/01 06:07:05;;;;;;;29.57;24.93;;;2.10;99.90;;;;;;5031483;28;20482;-75
2020/12/01 06:10:07;;;;;;;29.63;25.87;;;2.20;99.90;;;;;;5012864;28;20432;-77
2020/12/01 06:12:57;;;;;;;27.77;24.60;;;2.20;99.90;;;;;;5012410;28;20513;-76
2020/12/01 06:15:23;;;;;;;31.13;25.40;;;2.20;99.90;;;;;;5023261;28;20892;-76
2020/12/01 06:18:00;;;;;;;30.83;26.30;;;2.20;99.90;;;;;;5032340;28;20427;-75
2020/12/01 06:20:30;;;;;;;29.43;25.13;;;2.20;99.90;;;;;;5030482;28;20447;-75
2020/12/01 06:23:32;;;;;;;28.73;25.70;;;2.20;99.90;;;;;;5032852;28;20434;-76
2020/12/01 06:26:31;;;;;;;28.97;25.97;;;2.20;99.90;;;;;;5030623;28;20876;-75
2020/12/01 06:29:28;;;;;;;27.37;24.13;;;2.20;99.90;;;;;;5029524;28;20438;-76
2020/12/01 06:32:20;;;;;;;27.03;24.13;;;2.20;99.90;;;;;;5015241;28;20509;-75
2020/12/01 06:35:32;;;;;;;27.40;24.57;;;2.30;99.90;;;;;;5016263;28;20480;-75
2020/12/01 06:38:19;;;;;;;28.97;24.43;;;2.30;99.90;;;;;;5032245;28;20452;-75
2020/12/01 06:40:50;;;;;;;26.43;23.33;;;2.30;99.90;;;;;;5033031;28;20441;-75
2020/12/01 06:43:23;;;;;;;25.37;22.77;;;2.30;99.90;;;;;;5032624;28;20435;-75
2020/12/01 06:45:53;;;;;;;24.37;21.97;;;2.40;99.90;;;;;;5033135;28;20474;-75
2020/12/01 06:48:22;;;;;;;24.83;22.63;;;2.40;99.90;;;;;;5033246;28;20439;-76
2020/12/01 06:50:52;;;;;;;24.00;21.80;;;2.40;99.90;;;;;;5033980;28;20447;-76
2020/12/01 06:53:31;;;;;;;23.53;21.43;;;2.40;99.90;;;;;;5033968;28;20423;-75
2020/12/01 06:55:59;;;;;;;24.87;22.43;;;2.50;99.90;;;;;;5033549;28;20450;-75
2020/12/01 06:58:35;;;;;;;23.17;21.07;;;2.50;99.90;;;;;;5032493;28;20439;-76
2020/12/01 07:01:24;;;;;;;23.60;21.50;;;2.50;99.90;;;;;;5031195;28;20881;-75
2020/12/01 07:04:02;;;;;;;23.63;21.33;;;2.50;99.90;;;;;;5033407;28;20434;-75
2020/12/01 07:06:44;;;;;;;23.27;21.13;;;2.50;99.90;;;;;;5031351;28;20478;-77
2020/12/01 07:09:12;;;;;;;22.10;20.10;;;2.50;99.90;;;;;;5032614;28;20870;-76
2020/12/01 07:11:52;;;;;;;22.03;20.13;;;2.50;99.90;;;;;;5033356;28;20433;-76
2020/12/01 07:14:23;;;;;;;24.50;22.10;;;2.50;99.90;;;;;;5032613;28;20437;-76
2020/12/01 07:16:49;;;;;;;22.03;20.20;;;2.50;99.90;;;;;;5033218;28;20872;-76
2020/12/01 07:19:19;;;;;;;22.90;20.90;;;2.60;99.90;;;;;;5031757;28;20440;-76
2020/12/01 07:22:09;;;;;;;23.20;21.10;;;2.50;99.90;;;;;;5032215;28;20450;-75
2020/12/01 07:24:43;;;;;;;22.03;19.93;;;2.60;99.90;;;;;;5031745;28;20439;-76
2020/12/01 07:27:15;;;;;;;20.80;18.80;;;2.60;99.90;;;;;;5031465;28;20478;-76
2020/12/01 07:30:06;;;;;;;21.23;19.23;;;2.50;99.90;;;;;;5031760;28;20444;-76
2020/12/01 07:32:44;;;;;;;20.07;18.07;;;2.50;99.90;;;;;;5026970;28;20517;-76
2020/12/01 07:35:14;;;;;;;20.50;18.60;;;2.50;99.90;;;;;;5032366;28;20463;-76
2020/12/01 07:38:02;;;;;;;20.83;18.87;;;2.50;99.90;;;;;;5031129;28;20430;-76
2020/12/01 07:40:31;;;;;;;19.87;17.97;;;2.50;99.90;;;;;;5030571;28;20439;-76
2020/12/01 07:42:59;;;;;;;20.10;17.97;;;2.40;99.90;;;;;;5031185;28;20495;-76
2020/12/01 07:45:28;;;;;;;18.50;16.83;;;2.40;99.90;;;;;;5032146;28;20443;-77
2020/12/01 07:47:56;;;;;;;18.77;17.03;;;2.40;99.90;;;;;;5029636;28;20531;-76
2020/12/01 07:50:22;;;;;;;18.73;16.97;;;2.40;99.90;;;;;;5030204;28;20966;-75
2020/12/01 07:52:55;;;;;;;18.67;16.97;;;2.40;99.90;;;;;;5031290;28;20480;-76
2020/12/01 07:55:29;;;;;;;19.17;17.47;;;2.50;99.90;;;;;;5029726;28;20999;-76
2020/12/01 07:57:57;;;;;;;20.20;18.40;;;2.50;99.90;;;;;;5030055;28;20434;-76
2020/12/01 08:00:25;;;;;;;21.10;19.07;;;2.50;99.90;;;;;;5030466;28;20941;-76
2020/12/01 08:03:00;;;;;;;20.60;18.60;;;2.50;99.90;;;;;;5030641;28;20447;-76
2020/12/01 08:05:26;;;;;;;21.50;19.37;;;2.60;99.90;;;;;;5065857;22;20522;-78
2020/12/01 08:07:56;;;;;;;20.97;18.73;;;2.60;99.90;;;;;;5052401;28;20484;-78
2020/12/01 08:10:24;;;;;;;20.63;18.63;;;2.60;99.90;;;;;;5070310;28;20432;-79
2020/12/01 08:12:54;;;;;;;21.37;19.37;;;2.60;99.90;;;;;;5052881;28;20445;-78
2020/12/01 08:15:22;;;;;;;20.70;18.80;;;2.60;99.90;;;;;;5070738;28;20510;-78
2020/12/01 08:17:51;;;;;;;21.77;19.57;;;2.60;99.90;;;;;;5070500;28;20651;-79
2020/12/01 08:20:19;;;;;;;22.00;19.90;;;2.60;99.90;;;;;;5069750;28;20940;-78
2020/12/01 08:22:53;;;;;;;21.60;19.47;;;2.60;99.90;;;;;;5053113;28;20444;-78
2020/12/01 08:25:23;;;;;;;21.07;18.90;;;2.70;99.90;;;;;;5070654;28;20497;-79
2020/12/01 08:27:54;;;;;;;19.87;18.00;;;2.70;99.90;;;;;;5052156;28;20480;-78
2020/12/01 08:30:31;;;;;;;21.33;19.37;;;2.70;99.90;;;;;;5051824;28;20502;-79
2020/12/01 08:33:09;;;;;;;20.33;18.37;;;2.70;99.90;;;;;;5070353;28;20443;-78
2020/12/01 08:35:39;;;;;;;20.73;18.93;;;2.70;99.90;;;;;;5052498;28;20455;-78
2020/12/01 08:38:11;;;;;;;20.73;18.70;;;2.70;99.90;;;;;;5070596;28;20429;-78
2020/12/01 08:40:45;;;;;;;20.80;18.80;;;2.70;99.90;;;;;;5070623;28;20427;-78
2020/12/01 08:43:21;;;;;;;20.77;18.80;;;2.80;99.90;;;;;;5070487;28;20851;-78
2020/12/01 08:45:53;;;;;;;20.07;18.27;;;2.80;99.90;;;;;;5052404;28;20461;-79
2020/12/01 08:48:28;;;;;;;19.20;17.50;;;2.90;99.90;;;;;;5051946;28;20441;-79
2020/12/01 08:51:01;;;;;;;20.07;18.27;;;2.90;99.90;;;;;;5052929;28;20471;-78
2020/12/01 08:53:28;;;;;;;19.10;17.20;;;2.90;99.90;;;;;;5073201;28;20432;-79
2020/12/01 08:55:57;;;;;;;19.83;18.13;;;3.00;99.90;;;;;;5074272;28;20465;-78
2020/12/01 08:58:38;;;;;;;20.80;18.90;;;3.00;99.90;;;;;;5073209;28;20473;-79
2020/12/01 09:01:07;;;;;;;19.20;17.33;;;3.00;99.90;;;;;;5055751;28;20956;-78
2020/12/01 09:03:36;;;;;;;20.03;18.13;;;3.00;99.90;;;;;;5074498;28;20435;-79
2020/12/01 09:06:05;;;;;;;20.10;18.27;;;3.00;99.90;;;;;;5073307;28;21032;-79
2020/12/01 09:08:39;;;;;;;19.27;17.47;;;3.00;99.90;;;;;;5073775;28;20483;-78
2020/12/01 09:11:20;;;;;;;19.47;17.60;;;3.10;99.90;;;;;;5055838;28;20451;-78
2020/12/01 09:13:57;;;;;;;18.23;16.67;;;3.10;99.90;;;;;;5073731;28;20806;-79
2020/12/01 09:16:34;;;;;;;19.33;17.70;;;3.10;99.90;;;;;;5055438;28;20461;-78
2020/12/01 09:19:24;;;;;;;19.60;17.90;;;3.10;99.90;;;;;;5073584;28;20461;-79
2020/12/01 09:21:54;;;;;;;18.30;16.80;;;3.10;99.90;;;;;;5055571;28;20464;-79
2020/12/01 09:24:24;;;;;;;19.03;17.43;;;3.20;99.90;;;;;;5055563;28;20465;-79
2020/12/01 09:27:02;;;;;;;19.17;17.57;;;3.20;99.90;;;;;;5073340;28;20466;-78
2020/12/01 09:29:29;;;;;;;19.73;18.03;;;3.20;99.90;;;;;;5073055;28;20421;-78
2020/12/01 09:31:56;;;;;;;19.27;17.57;;;3.20;99.90;;;;;;5073428;28;20438;-79
2020/12/01 09:34:23;;;;;;;18.80;17.20;;;3.20;99.90;;;;;;5073255;28;20940;-78
2020/12/01 09:36:56;;;;;;;17.27;15.83;;;3.30;99.90;;;;;;5055144;28;20467;-78
2020/12/01 09:39:23;;;;;;;19.60;18.00;;;3.30;99.90;;;;;;5054824;28;20466;-78
2020/12/01 09:41:58;;;;;;;17.10;15.70;;;3.30;99.90;;;;;;5072966;28;20433;-79
2020/12/01 09:44:43;;;;;;;16.07;14.87;;;3.40;99.90;;;;;;5055092;28;20544;-79
2020/12/01 09:47:13;;;;;;;17.00;15.70;;;3.40;99.90;;;;;;5055219;28;20472;-79
2020/12/01 09:49:40;;;;;;;15.73;14.63;;;3.40;99.90;;;;;;5072430;28;20430;-78
2020/12/01 09:52:10;;;;;;;16.03;14.80;;;3.40;99.90;;;;;;5055412;28;20437;-78
2020/12/01 09:54:41;;;;;;;16.80;15.43;;;3.40;99.90;;;;;;5055404;28;20442;-79
2020/12/01 09:57:10;;;;;;;15.33;14.23;;;3.40;99.90;;;;;;5055221;28;20498;-78
2020/12/01 09:59:46;;;;;;;16.43;15.13;;;3.30;99.90;;;;;;5054258;28;20871;-78
2020/12/01 10:05:14;;;;;;;15.97;14.77;;;3.30;99.90;;;;;;5047462;28;20806;-78
2020/12/01 10:07:50;;;;;;;15.90;14.70;;;3.30;99.90;;;;;;5054487;28;20583;-79
2020/12/01 10:13:15;;;;;;;15.17;14.07;;;3.30;99.90;;;;;;5012395;28;20956;-79
2020/12/01 10:27:01;;;;;;;15.63;14.33;;;3.30;99.90;;;;;;5050664;28;20669;-78
2020/12/01 10:34:59;;;;;;;15.37;14.27;;;3.30;99.90;;;;;;5072307;28;20428;-78
2020/12/01 10:37:26;;;;;;;15.37;14.27;;;3.30;99.90;;;;;;5054646;28;20443;-78
2020/12/01 10:39:52;;;;;;;15.60;14.40;;;3.30;99.90;;;;;;5038339;28;20448;-78
2020/12/01 10:42:18;;;;;;;14.33;13.33;;;3.40;99.90;;;;;;5051076;28;20497;-78
2020/12/01 10:44:44;;;;;;;15.03;14.03;;;3.40;99.90;;;;;;5052369;28;20432;-79
2020/12/01 10:47:11;;;;;;;14.83;13.60;;;3.40;99.90;;;;;;5050832;28;20469;-78
2020/12/01 10:49:37;;;;;;;14.63;13.53;;;3.40;99.90;;;;;;5051426;28;20847;-78
2020/12/01 10:52:05;;;;;;;15.03;13.90;;;3.40;99.90;;;;;;5050604;28;21027;-78
2020/12/01 10:54:32;;;;;;;14.87;13.77;;;3.50;99.90;;;;;;5052037;28;20927;-78
2020/12/01 10:56:58;;;;;;;14.20;13.20;;;3.50;99.90;;;;;;5050743;28;20869;-78
2020/12/01 10:59:25;;;;;;;15.17;14.07;;;3.50;99.90;;;;;;5050024;28;20452;-78
2020/12/01 11:01:52;;;;;;;14.07;13.10;;;3.50;99.90;;;;;;5052053;28;20439;-78
2020/12/01 11:04:19;;;;;;;14.37;13.33;;;3.60;99.90;;;;;;5050629;28;20444;-78
2020/12/01 11:06:46;;;;;;;14.67;13.40;;;3.60;99.90;;;;;;5051057;28;20485;-78
2020/12/01 11:09:12;;;;;;;14.47;13.47;;;3.60;99.90;;;;;;5051234;28;20437;-78
2020/12/01 11:11:40;;;;;;;14.57;13.57;;;3.60;99.90;;;;;;5050790;28;20480;-78
2020/12/01 11:14:07;;;;;;;15.17;14.07;;;3.60;99.90;;;;;;5050625;28;20440;-78
2020/12/01 11:16:33;;;;;;;14.67;13.63;;;3.60;99.90;;;;;;5049237;28;20870;-79
2020/12/01 11:19:00;;;;;;;15.17;14.03;;;3.70;99.90;;;;;;5065743;28;21006;-78
2020/12/01 11:21:26;;;;;;;14.90;13.90;;;3.70;99.90;;;;;;5051240;28;20430;-78
2020/12/01 11:23:52;;;;;;;14.97;13.77;;;3.70;99.90;;;;;;5051456;28;20434;-78
2020/12/01 11:26:20;;;;;;;15.17;14.17;;;3.70;99.90;;;;;;5051308;28;20450;-79
2020/12/01 11:28:48;;;;;;;15.33;14.13;;;3.70;99.90;;;;;;5050578;28;20475;-78
2020/12/01 11:31:14;;;;;;;14.37;13.37;;;3.70;99.90;;;;;;5051376;28;20432;-78
2020/12/01 11:33:41;;;;;;;14.23;13.33;;;3.70;99.90;;;;;;5050196;28;20954;-78
2020/12/01 11:36:07;;;;;;;14.60;13.50;;;3.70;99.90;;;;;;5049577;28;20522;-78
2020/12/01 11:38:33;;;;;;;15.83;14.60;;;3.80;99.90;;;;;;5048977;28;20862;-79
2020/12/01 11:40:59;;;;;;;16.47;15.07;;;3.80;99.90;;;;;;5049860;28;20499;-78
2020/12/01 11:43:26;;;;;;;15.97;14.77;;;3.80;99.90;;;;;;5049632;28;20438;-78
2020/12/01 11:45:53;;;;;;;15.17;14.07;;;3.80;99.90;;;;;;5050677;28;20885;-78
2020/12/01 11:48:19;;;;;;;14.93;13.93;;;3.80;99.90;;;;;;5052045;28;20479;-78
2020/12/01 11:50:45;;;;;;;15.17;14.17;;;3.80;99.90;;;;;;5050708;28;20440;-78
2020/12/01 11:53:12;;;;;;;14.07;13.17;;;3.80;99.90;;;;;;5032845;28;20530;-78
2020/12/01 11:55:38;;;;;;;14.17;13.27;;;3.80;99.90;;;;;;5053143;28;20510;-78
2020/12/01 11:58:04;;;;;;;14.20;13.20;;;3.80;99.90;;;;;;5043633;28;20986;-78
2020/12/01 12:00:32;;;;;;;14.20;13.30;;;3.80;99.90;;;;;;5048797;28;20537;-78
2020/12/01 12:02:59;;;;;;;14.03;13.13;;;3.80;99.90;;;;;;5050434;28;20461;-78
2020/12/01 12:05:25;;;;;;;14.73;13.73;;;3.80;99.90;;;;;;5032850;28;20474;-78
2020/12/01 12:07:51;;;;;;;14.57;13.47;;;3.80;99.90;;;;;;5032756;28;20507;-78
2020/12/01 12:10:18;;;;;;;14.47;13.47;;;3.80;99.90;;;;;;5032223;28;20471;-79
2020/12/01 12:12:44;;;;;;;14.57;13.57;;;3.80;99.90;;;;;;5032508;28;20469;-78
2020/12/01 12:15:10;;;;;;;13.40;12.60;;;3.80;99.90;;;;;;5032546;28;20457;-78
2020/12/01 12:17:37;;;;;;;14.27;13.27;;;3.80;99.90;;;;;;5050643;28;20430;-78
2020/12/01 12:20:04;;;;;;;14.20;13.30;;;3.80;99.90;;;;;;5032206;28;20528;-78
2020/12/01 12:22:30;;;;;;;16.17;14.83;;;3.80;99.90;;;;;;5032574;28;20519;-78
2020/12/01 12:24:57;;;;;;;14.60;13.70;;;3.80;99.90;;;;;;5032600;28;20446;-78
2020/12/01 12:27:23;;;;;;;14.87;13.87;;;3.90;99.90;;;;;;5033422;28;20477;-78
2020/12/01 12:29:49;;;;;;;14.50;13.50;;;4.00;99.90;;;;;;5036052;28;20965;-78
2020/12/01 12:32:15;;;;;;;14.40;13.40;;;4.00;99.90;;;;;;5054242;28;20858;-78
2020/12/01 12:34:42;;;;;;;15.03;13.93;;;4.00;99.90;;;;;;5036407;28;20515;-78
2020/12/01 12:37:09;;;;;;;14.40;13.50;;;4.00;99.90;;;;;;5054268;28;20499;-79
2020/12/01 12:39:35;;;;;;;14.37;13.37;;;4.00;99.90;;;;;;5036010;28;20491;-78
2020/12/01 12:42:02;;;;;;;14.93;13.87;;;4.00;99.90;;;;;;5036649;28;20449;-78
2020/12/01 12:44:28;;;;;;;15.40;14.17;;;4.00;99.90;;;;;;5054487;28;20509;-78
2020/12/01 12:46:54;;;;;;;15.70;14.60;;;4.00;99.90;;;;;;5036810;28;21159;-78
2020/12/01 12:49:21;;;;;;;15.60;14.50;;;4.00;99.90;;;;;;5042125;28;20472;-78
2020/12/01 12:51:47;;;;;;;15.63;14.63;;;4.00;99.90;;;;;;5079447;28;20446;-78
2020/12/01 12:54:14;;;;;;;14.93;13.80;;;4.10;99.90;;;;;;5065630;28;20893;-79
2020/12/01 12:56:40;;;;;;;14.93;13.90;;;4.10;99.90;;;;;;5081566;28;20495;-79
2020/12/01 12:59:07;;;;;;;13.93;13.03;;;4.10;99.90;;;;;;5062134;28;20474;-79
2020/12/01 13:01:33;;;;;;;13.77;12.87;;;4.10;99.90;;;;;;5078435;28;20429;-78
2020/12/01 13:03:59;;;;;;;14.37;13.37;;;4.10;99.90;;;;;;5061018;28;20439;-79
2020/12/01 13:06:25;;;;;;;13.77;12.97;;;4.10;99.90;;;;;;5061624;28;20476;-79
2020/12/01 13:08:52;;;;;;;13.83;12.93;;;4.10;99.90;;;;;;5074583;28;20429;-79
2020/12/01 13:11:19;;;;;;;13.87;12.97;;;4.10;99.90;;;;;;5055880;28;20453;-79
2020/12/01 13:13:45;;;;;;;13.73;12.83;;;4.20;99.90;;;;;;5056186;28;20505;-78